»·PEaware :: FDX3171 KGJT-KDEN

FDX3171 :: KGJT-KDEN

FLIGHT INFORMATION

Flight Status: Arrived
Operator:
Federal Express
More flights by this operator :: More flights under this callsign
Pilot: David C. (16084)
Aircraft: BOEING 767-300
(B763)
More flights by this aircraft type
Origin: KGJT Walker
United States
Destination: KDEN Denver Intl
United States
More flights between these airports :: More routes between these airports
Route: JNC7 JNC HAQHY CREDE3
File this flight plan on PilotEdge
Remarks: PBN / A1B1C1D1L1O1 DOF / 171011 REG / FDX3171 OPR / FDX RMK / TCAS SIMBRIEF
Altitude:
(Current/Filed)
27,000ft
Speed:
(Current/Filed)
484kts
Departed: 10-Oct-17 05:48 PM
Arrived: 10-Oct-17 06:31 PM
Distance/Time
Traveled:
183nm/0:43
Distance/Time
To Go:
Arrived

Flight Plot

Page will automatically refresh every two minutes.

Flight plan parsing failed; only flown route is shown


Map Options




Map Legend


Flown Route
Filed Route
Departure Airport
Arrival Airport
Navaid (VOR, NDB)
Fix

Horizontal Profiles

Position Reports

Time Latitude Longitude Heading Altitude Ground
Speed
10-Oct-17 17:30 39.122350 -108.526760 213 4843ft 0kts
10-Oct-17 17:31 39.122350 -108.526760 213 4843ft 0kts
10-Oct-17 17:32 39.122350 -108.526760 213 4843ft 0kts
10-Oct-17 17:33 39.122350 -108.526760 213 4843ft 0kts
10-Oct-17 17:34 39.122350 -108.526760 213 4843ft 0kts
10-Oct-17 17:35 39.122350 -108.526760 213 4843ft 0kts
10-Oct-17 17:36 39.122350 -108.526760 213 4843ft 0kts
10-Oct-17 17:37 39.122350 -108.526760 213 4843ft 0kts
10-Oct-17 17:39 39.122350 -108.526760 213 4843ft 0kts
10-Oct-17 17:40 39.122350 -108.526760 213 4843ft 0kts
10-Oct-17 17:41 39.122349 -108.526760 213 4843ft 0kts
10-Oct-17 17:42 39.122349 -108.526760 213 4843ft 0kts
10-Oct-17 17:43 39.122349 -108.526760 213 4843ft 0kts
10-Oct-17 17:44 39.122575 -108.526581 191 4844ft 2kts
10-Oct-17 17:45 39.122856 -108.526747 115 4845ft 0kts
10-Oct-17 17:46 39.122856 -108.526747 115 4845ft 0kts
10-Oct-17 17:47 39.122856 -108.526747 115 4845ft 0kts
10-Oct-17 17:48 39.121998 -108.523172 124 4852ft 25kts
10-Oct-17 17:49 39.117959 -108.515667 91 4855ft 7kts
10-Oct-17 17:50 39.118005 -108.515421 66 4856ft 0kts
10-Oct-17 17:51 39.118005 -108.515421 66 4856ft 0kts
10-Oct-17 17:52 39.118005 -108.515421 66 4856ft 0kts
10-Oct-17 17:53 39.123154 -108.522827 304 4858ft 128kts
10-Oct-17 17:54 39.148585 -108.587646 261 6969ft 238kts
10-Oct-17 17:55 39.118900 -108.661519 239 9374ft 236kts
10-Oct-17 17:56 39.085535 -108.735466 237 11991ft 245kts
10-Oct-17 17:57 39.027067 -108.749077 141 14069ft 300kts
10-Oct-17 17:58 38.994890 -108.650439 109 14007ft 307kts
10-Oct-17 17:59 38.969098 -108.541062 110 17267ft 327kts
10-Oct-17 18:00 38.941372 -108.427381 110 20320ft 345kts
10-Oct-17 18:01 38.912488 -108.310204 108 22983ft 363kts
10-Oct-17 18:02 38.879253 -108.188068 128 25340ft 373kts
10-Oct-17 18:03 38.828150 -108.070523 99 27291ft 404kts
10-Oct-17 18:04 38.846690 -107.915802 78 27347ft 477kts
10-Oct-17 18:05 38.874139 -107.738955 78 27300ft 517kts
10-Oct-17 18:06 38.901644 -107.558510 78 27291ft 516kts
10-Oct-17 18:07 38.928918 -107.377459 79 27318ft 518kts
10-Oct-17 18:08 38.955793 -107.197092 80 27341ft 519kts
10-Oct-17 18:09 38.982603 -107.015084 80 27343ft 519kts
10-Oct-17 18:10 39.009097 -106.832977 79 27360ft 516kts
10-Oct-17 18:11 39.035118 -106.652383 79 27371ft 516kts
10-Oct-17 18:12 39.060988 -106.470669 79 27373ft 516kts
10-Oct-17 18:13 39.084699 -106.302226 80 27367ft 516kts
10-Oct-17 18:14 39.115491 -106.124057 67 27321ft 515kts
10-Oct-17 18:15 39.181861 -105.968228 59 25960ft 486kts
10-Oct-17 18:16 39.247424 -105.819186 59 23820ft 476kts
10-Oct-17 18:17 39.310769 -105.674553 59 21370ft 450kts
10-Oct-17 18:18 39.370281 -105.538650 59 20102ft 402kts
10-Oct-17 18:18 39.414442 -105.444649 53 19578ft 364kts
10-Oct-17 18:20 39.479740 -105.321211 54 17737ft 351kts
10-Oct-17 18:21 39.533062 -105.219650 54 16415ft 341kts
10-Oct-17 18:21 39.576593 -105.136470 54 15889ft 329kts
10-Oct-17 18:22 39.627943 -105.038099 55 15823ft 331kts
10-Oct-17 18:23 39.679294 -104.939202 55 15196ft 328kts
10-Oct-17 18:25 39.750792 -104.845876 9 13894ft 318kts
10-Oct-17 18:25 39.818014 -104.840726 359 12674ft 270kts
10-Oct-17 18:26 39.891538 -104.839439 359 11319ft 258kts
10-Oct-17 18:27 39.963114 -104.839508 357 9333ft 260kts
10-Oct-17 18:28 40.028400 -104.827810 45 9043ft 243kts
10-Oct-17 18:29 40.039603 -104.741764 87 7079ft 242kts
10-Oct-17 18:30 40.025792 -104.679383 148 7104ft 166kts
10-Oct-17 18:31 39.984211 -104.659322 178 7041ft 165kts
10-Oct-17 18:32 39.938169 -104.659218 179 6936ft 168kts
10-Oct-17 18:33 39.894576 -104.659760 179 6043ft 150kts
10-Oct-17 18:34 39.853163 -104.660228 179 5415ft 140kts
10-Oct-17 18:35 39.836743 -104.661434 212 5412ft 0kts
10-Oct-17 18:36 39.836686 -104.661480 212 5412ft 3kts
10-Oct-17 18:37 39.830247 -104.662625 179 5416ft 23kts
10-Oct-17 18:38 39.829378 -104.669968 269 5393ft 33kts
10-Oct-17 18:39 39.830931 -104.674060 359 5386ft 0kts

Navigation Log

Ident Type
Flight plan parsing failed, navigation log unavailable